Weather reports worldwide

Advertisment
Pristina, Kosovo (13481): temperature & dewpoint: 16.04.2018 17:00:00 - 22.04.2018 17:00:00 (CEST)Pristina, Kosovo (13481): wind speed: 16.04.2018 17:00:00 - 22.04.2018 17:00:00 (CEST)Pristina, Kosovo (13481): wind direction: 16.04.2018 17:00:00 - 22.04.2018 17:00:00 (CEST)Pristina, Kosovo (13481): visibility: 16.04.2018 17:00:00 - 22.04.2018 17:00:00 (CEST)
Date & Time tt [°C] td [°C] ff [km/h] ff [kn] dd vv [km]
22.04.2018 17:00:00 25,0 0,0 8 4 W 10
22.04.2018 16:00:00 25,0 -1,0 9 5 WNW 10
22.04.2018 15:00:00 25,0 1,0 8 4 SW 10
22.04.2018 14:00:00 24,0 1,0 8 4 WNW 10
22.04.2018 13:00:00 23,0 5,0 5 3 - 10
22.04.2018 12:00:00 21,0 5,0 4 2 - 10
22.04.2018 11:00:00 20,0 7,0 4 2 - 10
22.04.2018 10:00:00 16,0 7,0 4 2 - 10
22.04.2018 09:00:00 13,0 6,0 2 1 - 10
22.04.2018 08:00:00 10,0 4,0 2 1 - 10
22.04.2018 07:00:00 6,0 2,0 2 1 - 8
22.04.2018 06:00:00 6,0 2,0 0 0 N 10
22.04.2018 05:00:00 5,0 1,0 0 0 N 10
22.04.2018 04:00:00 5,0 1,0 5 3 - 10
22.04.2018 03:00:00 6,0 2,0 0 0 N 10
22.04.2018 02:00:00 7,0 2,0 0 0 N 10
22.04.2018 01:00:00 8,0 2,0 2 1 - 10
22.04.2018 00:00:00 10,0 3,0 2 1 - 10
21.04.2018 23:00:00 10,0 2,0 4 2 - 10
21.04.2018 22:00:00 11,0 4,0 2 1 - 10
21.04.2018 21:00:00 13,0 3,0 0 0 N 10
21.04.2018 20:00:00 15,0 2,0 5 3 - 10
21.04.2018 19:00:00 20,0 3,0 4 2 - 10
21.04.2018 18:00:00 21,0 1,0 5 3 - 10
21.04.2018 17:00:00 21,0 3,0 8 4 ENE 10
21.04.2018 16:00:00 21,0 0,0 8 4 E 10
21.04.2018 15:00:00 21,0 0,0 9 5 ENE 10
21.04.2018 14:00:00 20,0 2,0 4 2 - 10
21.04.2018 13:00:00 19,0 2,0 8 4 SSW 10
21.04.2018 12:00:00 18,0 2,0 8 4 S 10
21.04.2018 11:00:00 17,0 4,0 8 4 S 10
21.04.2018 10:00:00 14,0 5,0 4 2 - 10
21.04.2018 09:00:00 11,0 4,0 2 1 - 10
21.04.2018 08:00:00 8,0 3,0 2 1 - 10
21.04.2018 07:00:00 4,0 1,0 2 1 - 10
21.04.2018 06:00:00 4,0 0,0 0 0 N 10
21.04.2018 05:00:00 6,0 2,0 2 1 - 10
21.04.2018 04:00:00 6,0 2,0 2 1 - 10
21.04.2018 03:00:00 7,0 2,0 0 0 N 10
21.04.2018 02:00:00 7,0 2,0 4 2 - 10
21.04.2018 01:00:00 8,0 3,0 4 2 - 10
21.04.2018 00:00:00 9,0 2,0 2 1 - 10
20.04.2018 23:00:00 11,0 2,0 8 4 NNE 10
20.04.2018 22:00:00 14,0 2,0 11 6 NNW 10
20.04.2018 21:00:00 14,0 2,0 5 3 - 10
20.04.2018 20:00:00 14,0 3,0 11 6 N 10
20.04.2018 19:00:00 17,0 3,0 22 12 NNE 10
20.04.2018 18:00:00 18,0 2,0 29 16 NNE 10
20.04.2018 17:00:00 19,0 2,0 31 17 NNE 10
20.04.2018 16:00:00 20,0 2,0 34 18 NE 10
20.04.2018 15:00:00 20,0 2,0 31 17 NNE 10
20.04.2018 14:00:00 21,0 1,0 31 17 NE 10
20.04.2018 13:00:00 21,0 -1,0 31 17 NNE 10
20.04.2018 12:00:00 20,0 -2,0 26 14 N 10
20.04.2018 11:00:00 19,0 6,0 22 12 N 10
20.04.2018 10:00:00 18,0 6,0 28 15 N 10
20.04.2018 09:00:00 15,0 8,0 8 4 NNE 10
20.04.2018 08:00:00 11,0 7,0 5 3 - 10
20.04.2018 07:00:00 7,0 4,0 4 2 - 10
20.04.2018 06:00:00 4,0 2,0 5 3 - 10
20.04.2018 05:00:00 6,0 4,0 4 2 - 10
20.04.2018 04:00:00 8,0 4,0 4 2 - 10
20.04.2018 03:00:00 7,0 3,0 8 4 E 10
20.04.2018 02:00:00 8,0 5,0 4 2 - 10
20.04.2018 01:00:00 8,0 5,0 5 3 - 10
20.04.2018 00:00:00 13,0 5,0 8 4 NNW 10
19.04.2018 23:00:00 15,0 5,0 15 8 NW 10
19.04.2018 22:00:00 13,0 5,0 5 3 - 10
19.04.2018 21:00:00 13,0 6,0 4 2 - 10
19.04.2018 20:00:00 17,0 5,0 9 5 NNW 10
19.04.2018 19:00:00 18,0 7,0 9 5 N 10
19.04.2018 18:00:00 20,0 7,0 15 8 NNE 10
19.04.2018 17:00:00 22,0 9,0 16 9 NNE 10
19.04.2018 16:00:00 19,0 7,0 13 7 N 10
19.04.2018 15:00:00 19,0 9,0 11 6 NNE 10
19.04.2018 14:00:00 18,0 10,0 13 7 NNE 10
19.04.2018 13:00:00 18,0 10,0 8 4 NE 10
19.04.2018 12:00:00 17,0 9,0 13 7 NNE 10
19.04.2018 11:00:00 15,0 9,0 4 2 - 8
19.04.2018 10:00:00 13,0 9,0 2 1 - 8
19.04.2018 09:00:00 11,0 8,0 4 2 - 8
19.04.2018 08:00:00 11,0 8,0 4 2 - 8
19.04.2018 07:00:00 11,0 9,0 8 4 NNE 6
19.04.2018 06:00:00 12,0 9,0 4 2 - 7
19.04.2018 05:00:00 12,0 8,0 4 2 - 10
19.04.2018 04:00:00 12,0 9,0 5 3 - 10
19.04.2018 03:00:00 11,0 8,0 8 4 NW 10
19.04.2018 02:00:00 12,0 8,0 15 8 NNW 10
19.04.2018 01:00:00 12,0 8,0 11 6 NNW 10
19.04.2018 00:00:00 12,0 8,0 8 4 NW 10
18.04.2018 23:00:00 12,0 8,0 8 4 NW 10
18.04.2018 22:00:00 12,0 9,0 13 7 N 10
18.04.2018 21:00:00 13,0 9,0 9 5 NNW 10
18.04.2018 20:00:00 14,0 9,0 13 7 N 10
18.04.2018 19:00:00 15,0 9,0 18 10 N 10
18.04.2018 18:00:00 16,0 9,0 18 10 N 10
18.04.2018 17:00:00 16,0 10,0 16 9 N 10
18.04.2018 16:00:00 16,0 10,0 21 11 N 10
18.04.2018 15:00:00 16,0 10,0 15 8 NNW 10
18.04.2018 14:00:00 16,0 10,0 16 9 N 10
18.04.2018 13:00:00 16,0 9,0 13 7 N 10
18.04.2018 12:00:00 15,0 9,0 9 5 NNE 10
18.04.2018 11:00:00 15,0 8,0 8 4 N 10
18.04.2018 10:00:00 14,0 8,0 9 5 NNE 10
18.04.2018 09:00:00 13,0 8,0 8 4 N 10
18.04.2018 08:00:00 12,0 8,0 9 5 NNW 10
18.04.2018 07:00:00 12,0 7,0 5 3 - 10
18.04.2018 06:00:00 12,0 8,0 9 5 NW 10
18.04.2018 05:00:00 12,0 8,0 8 4 NW 10
18.04.2018 04:00:00 13,0 8,0 8 4 NNW 10
18.04.2018 03:00:00 13,0 9,0 5 3 - 10
18.04.2018 02:00:00 13,0 9,0 5 3 - 10
18.04.2018 01:00:00 13,0 9,0 5 3 - 10
18.04.2018 00:00:00 13,0 9,0 11 6 NNW 10
17.04.2018 23:00:00 14,0 9,0 5 3 - 10
17.04.2018 22:00:00 14,0 9,0 13 7 N 10
17.04.2018 21:00:00 15,0 9,0 15 8 NNE 10
17.04.2018 20:00:00 15,0 9,0 16 9 NNE 10
17.04.2018 19:00:00 16,0 9,0 16 9 N 10
17.04.2018 18:00:00 17,0 9,0 22 12 NNW 10
17.04.2018 17:00:00 17,0 9,0 22 12 NNW 10
17.04.2018 16:00:00 19,0 9,0 16 9 NNW 10
17.04.2018 15:00:00 19,0 9,0 15 8 N 10
17.04.2018 14:00:00 18,0 8,0 9 5 NNW 10
17.04.2018 13:00:00 16,0 8,0 4 2 - 10
17.04.2018 12:00:00 15,0 9,0 5 3 - 10
17.04.2018 11:00:00 14,0 8,0 8 4 S 10
17.04.2018 10:00:00 12,0 8,0 5 3 - 10
17.04.2018 09:00:00 11,0 7,0 4 2 - 10
17.04.2018 08:00:00 9,0 7,0 8 4 E 5
17.04.2018 07:00:00 8,0 6,0 5 3 - 4,0
17.04.2018 06:00:00 7,0 5,0 0 0 N 10
17.04.2018 05:00:00 7,0 4,0 2 1 - 10
17.04.2018 04:00:00 8,0 5,0 0 0 N 10
17.04.2018 03:00:00 8,0 5,0 8 4 NNE 10
17.04.2018 02:00:00 10,0 6,0 8 4 SSE 10
17.04.2018 01:00:00 11,0 6,0 2 1 - 10
17.04.2018 00:00:00 11,0 7,0 0 0 N 10
16.04.2018 23:00:00 11,0 7,0 0 0 N 10
16.04.2018 22:00:00 11,0 7,0 2 1 - 10
16.04.2018 21:00:00 12,0 6,0 0 0 N 10
16.04.2018 20:00:00 12,0 7,0 5 3 - 10
16.04.2018 19:00:00 14,0 6,0 5 3 - 10
16.04.2018 18:00:00 14,0 6,0 11 6 ESE 10
16.04.2018 17:00:00 14,0 7,0 5 3 - 10

tt = temperature
td = dewpoint
ff = wind speed
dd = wind direction
vv = visibility

Next stations